sensor_id;sensor_type;location;lat;lon;timestamp;pressure;altitude;pressure_sealevel;temperature;humidity
4735;BME280;2381;50.676;12.612;2022-10-23T00:00:45;98128.00;;;11.00;100.00
4735;BME280;2381;50.676;12.612;2022-10-23T00:03:50;98124.88;;;11.05;100.00
4735;BME280;2381;50.676;12.612;2022-10-23T00:06:55;98112.84;;;10.94;100.00
4735;BME280;2381;50.676;12.612;2022-10-23T00:09:58;98117.13;;;11.03;100.00
4735;BME280;2381;50.676;12.612;2022-10-23T00:13:01;98122.72;;;11.08;100.00
4735;BME280;2381;50.676;12.612;2022-10-23T00:16:05;98119.91;;;11.10;100.00
4735;BME280;2381;50.676;12.612;2022-10-23T00:19:08;98128.97;;;11.07;100.00
4735;BME280;2381;50.676;12.612;2022-10-23T00:22:13;98139.69;;;11.14;100.00
4735;BME280;2381;50.676;12.612;2022-10-23T00:25:16;98126.19;;;10.77;100.00
4735;BME280;2381;50.676;12.612;2022-10-23T00:28:19;98115.66;;;10.85;100.00
4735;BME280;2381;50.676;12.612;2022-10-23T00:31:23;98113.34;;;10.98;100.00
4735;BME280;2381;50.676;12.612;2022-10-23T00:34:27;98116.28;;;11.03;100.00
4735;BME280;2381;50.676;12.612;2022-10-23T00:37:31;98116.81;;;10.90;100.00
4735;BME280;2381;50.676;12.612;2022-10-23T00:40:34;98109.06;;;10.97;100.00
4735;BME280;2381;50.676;12.612;2022-10-23T00:43:55;98099.97;;;11.07;100.00
4735;BME280;2381;50.676;12.612;2022-10-23T00:46:58;98105.09;;;11.09;100.00
4735;BME280;2381;50.676;12.612;2022-10-23T00:50:01;98108.38;;;11.11;100.00
4735;BME280;2381;50.676;12.612;2022-10-23T00:53:06;98117.47;;;10.84;100.00
4735;BME280;2381;50.676;12.612;2022-10-23T00:56:10;98096.53;;;10.59;100.00
4735;BME280;2381;50.676;12.612;2022-10-23T00:59:13;98098.19;;;10.76;100.00
4735;BME280;2381;50.676;12.612;2022-10-23T01:02:18;98092.25;;;10.82;100.00
4735;BME280;2381;50.676;12.612;2022-10-23T01:05:28;98081.06;;;10.88;100.00
4735;BME280;2381;50.676;12.612;2022-10-23T01:08:39;98083.38;;;10.75;100.00
4735;BME280;2381;50.676;12.612;2022-10-23T01:11:47;98078.59;;;10.86;100.00
4735;BME280;2381;50.676;12.612;2022-10-23T01:15:00;98082.38;;;10.92;100.00
4735;BME280;2381;50.676;12.612;2022-10-23T01:18:12;98087.47;;;10.85;100.00
4735;BME280;2381;50.676;12.612;2022-10-23T01:21:26;98093.44;;;10.79;100.00
4735;BME280;2381;50.676;12.612;2022-10-23T01:24:43;98082.22;;;10.85;100.00
4735;BME280;2381;50.676;12.612;2022-10-23T01:27:51;98081.88;;;10.88;100.00
4735;BME280;2381;50.676;12.612;2022-10-23T01:30:58;98078.78;;;10.77;100.00
4735;BME280;2381;50.676;12.612;2022-10-23T01:34:11;98071.81;;;10.92;100.00
4735;BME280;2381;50.676;12.612;2022-10-23T01:37:20;98074.16;;;10.87;100.00
4735;BME280;2381;50.676;12.612;2022-10-23T01:40:28;98072.16;;;10.89;100.00
4735;BME280;2381;50.676;12.612;2022-10-23T01:43:39;98079.75;;;10.84;100.00
4735;BME280;2381;50.676;12.612;2022-10-23T01:46:44;98078.94;;;10.83;100.00
4735;BME280;2381;50.676;12.612;2022-10-23T01:49:50;98092.59;;;10.87;100.00
4735;BME280;2381;50.676;12.612;2022-10-23T01:52:55;98104.94;;;10.86;100.00
4735;BME280;2381;50.676;12.612;2022-10-23T01:56:00;98106.59;;;10.87;100.00
4735;BME280;2381;50.676;12.612;2022-10-23T01:59:08;98117.31;;;10.94;100.00
4735;BME280;2381;50.676;12.612;2022-10-23T02:02:14;98124.38;;;10.93;100.00
4735;BME280;2381;50.676;12.612;2022-10-23T02:05:21;98128.81;;;10.93;100.00
4735;BME280;2381;50.676;12.612;2022-10-23T02:08:26;98138.88;;;10.97;100.00
4735;BME280;2381;50.676;12.612;2022-10-23T02:11:31;98135.06;;;10.92;100.00
4735;BME280;2381;50.676;12.612;2022-10-23T02:14:45;98130.00;;;10.90;100.00
4735;BME280;2381;50.676;12.612;2022-10-23T02:18:00;98131.78;;;10.90;100.00
4735;BME280;2381;50.676;12.612;2022-10-23T02:21:08;98137.22;;;10.88;100.00
4735;BME280;2381;50.676;12.612;2022-10-23T02:24:13;98142.66;;;10.87;100.00
4735;BME280;2381;50.676;12.612;2022-10-23T02:27:22;98130.78;;;10.83;100.00
4735;BME280;2381;50.676;12.612;2022-10-23T02:30:32;98136.09;;;10.75;100.00
4735;BME280;2381;50.676;12.612;2022-10-23T02:33:43;98123.06;;;10.73;100.00
4735;BME280;2381;50.676;12.612;2022-10-23T02:36:47;98125.53;;;10.67;100.00
4735;BME280;2381;50.676;12.612;2022-10-23T02:39:53;98125.03;;;10.63;100.00
4735;BME280;2381;50.676;12.612;2022-10-23T02:42:58;98120.91;;;10.69;100.00
4735;BME280;2381;50.676;12.612;2022-10-23T02:46:10;98127.50;;;10.65;100.00
4735;BME280;2381;50.676;12.612;2022-10-23T02:49:21;98113.84;;;10.61;100.00
4735;BME280;2381;50.676;12.612;2022-10-23T02:52:30;98104.59;;;10.57;100.00
4735;BME280;2381;50.676;12.612;2022-10-23T02:55:44;98106.41;;;10.49;100.00
4735;BME280;2381;50.676;12.612;2022-10-23T02:58:55;98098.34;;;10.50;100.00
4735;BME280;2381;50.676;12.612;2022-10-23T03:02:08;98095.72;;;10.42;100.00
4735;BME280;2381;50.676;12.612;2022-10-23T03:05:16;98087.31;;;10.47;100.00
4735;BME280;2381;50.676;12.612;2022-10-23T03:08:21;98078.78;;;10.45;100.00
4735;BME280;2381;50.676;12.612;2022-10-23T03:11:25;98086.97;;;10.42;100.00
4735;BME280;2381;50.676;12.612;2022-10-23T03:14:29;98089.59;;;10.42;100.00
4735;BME280;2381;50.676;12.612;2022-10-23T03:17:33;98096.53;;;10.35;100.00
4735;BME280;2381;50.676;12.612;2022-10-23T03:20:36;98091.41;;;10.33;100.00
4735;BME280;2381;50.676;12.612;2022-10-23T03:23:39;98087.97;;;10.33;100.00
4735;BME280;2381;50.676;12.612;2022-10-23T03:26:42;98083.66;;;10.32;100.00
4735;BME280;2381;50.676;12.612;2022-10-23T03:29:45;98089.63;;;10.34;100.00
4735;BME280;2381;50.676;12.612;2022-10-23T03:32:51;98095.88;;;10.33;100.00
4735;BME280;2381;50.676;12.612;2022-10-23T03:35:54;98094.19;;;10.32;100.00
4735;BME280;2381;50.676;12.612;2022-10-23T03:38:58;98088.63;;;10.35;100.00
4735;BME280;2381;50.676;12.612;2022-10-23T03:42:01;98092.25;;;10.34;100.00
4735;BME280;2381;50.676;12.612;2022-10-23T03:45:04;98098.81;;;10.38;100.00
4735;BME280;2381;50.676;12.612;2022-10-23T03:48:09;98087.00;;;10.34;100.00
4735;BME280;2381;50.676;12.612;2022-10-23T03:51:12;98082.03;;;10.31;100.00
4735;BME280;2381;50.676;12.612;2022-10-23T03:54:14;98092.25;;;10.34;100.00
4735;BME280;2381;50.676;12.612;2022-10-23T03:57:18;98095.88;;;10.33;100.00
4735;BME280;2381;50.676;12.612;2022-10-23T04:00:21;98102.59;;;10.35;100.00
4735;BME280;2381;50.676;12.612;2022-10-23T04:03:25;98105.91;;;10.29;100.00
4735;BME280;2381;50.676;12.612;2022-10-23T04:06:28;98094.88;;;10.26;100.00
4735;BME280;2381;50.676;12.612;2022-10-23T04:09:32;98080.22;;;10.23;100.00
4735;BME280;2381;50.676;12.612;2022-10-23T04:12:37;98082.69;;;10.25;100.00
4735;BME280;2381;50.676;12.612;2022-10-23T04:15:40;98082.69;;;10.25;100.00
4735;BME280;2381;50.676;12.612;2022-10-23T04:18:51;98075.78;;;10.24;100.00
4735;BME280;2381;50.676;12.612;2022-10-23T04:21:54;98064.91;;;10.19;100.00
4735;BME280;2381;50.676;12.612;2022-10-23T04:24:58;98062.63;;;10.24;100.00
4735;BME280;2381;50.676;12.612;2022-10-23T04:28:03;98070.81;;;10.21;100.00
4735;BME280;2381;50.676;12.612;2022-10-23T04:31:10;98056.69;;;10.22;100.00
4735;BME280;2381;50.676;12.612;2022-10-23T04:34:17;98065.56;;;10.21;100.00
4735;BME280;2381;50.676;12.612;2022-10-23T04:37:20;98066.22;;;10.15;100.00
4735;BME280;2381;50.676;12.612;2022-10-23T04:40:23;98064.56;;;10.14;100.00
4735;BME280;2381;50.676;12.612;2022-10-23T04:43:27;98061.09;;;10.14;100.00
4735;BME280;2381;50.676;12.612;2022-10-23T04:46:31;98057.66;;;10.13;100.00
4735;BME280;2381;50.676;12.612;2022-10-23T04:49:35;98050.56;;;10.06;100.00
4735;BME280;2381;50.676;12.612;2022-10-23T04:53:16;98041.03;;;10.05;100.00
4735;BME280;2381;50.676;12.612;2022-10-23T04:56:31;98038.09;;;10.08;100.00
4735;BME280;2381;50.676;12.612;2022-10-23T04:59:39;98047.44;;;10.10;100.00
4735;BME280;2381;50.676;12.612;2022-10-23T05:02:42;98058.00;;;10.18;100.00
4735;BME280;2381;50.676;12.612;2022-10-23T05:05:51;98062.78;;;10.23;100.00
4735;BME280;2381;50.676;12.612;2022-10-23T05:09:15;98065.75;;;10.27;100.00
4735;BME280;2381;50.676;12.612;2022-10-23T05:12:40;98061.31;;;10.28;100.00
4735;BME280;2381;50.676;12.612;2022-10-23T05:15:43;98057.84;;;10.27;100.00
4735;BME280;2381;50.676;12.612;2022-10-23T05:18:46;98060.50;;;10.27;100.00
4735;BME280;2381;50.676;12.612;2022-10-23T05:21:51;98042.72;;;10.29;100.00
4735;BME280;2381;50.676;12.612;2022-10-23T05:25:00;98047.16;;;10.29;100.00
4735;BME280;2381;50.676;12.612;2022-10-23T05:28:06;98049.63;;;10.30;100.00
4735;BME280;2381;50.676;12.612;2022-10-23T05:31:09;98054.06;;;10.30;100.00
4735;BME280;2381;50.676;12.612;2022-10-23T05:34:17;98037.59;;;10.28;100.00
4735;BME280;2381;50.676;12.612;2022-10-23T05:37:24;98029.38;;;10.31;100.00
4735;BME280;2381;50.676;12.612;2022-10-23T05:40:36;98037.97;;;10.33;100.00
4735;BME280;2381;50.676;12.612;2022-10-23T05:43:42;98046.66;;;10.33;100.00
4735;BME280;2381;50.676;12.612;2022-10-23T05:47:07;98055.06;;;10.37;100.00
4735;BME280;2381;50.676;12.612;2022-10-23T05:50:36;98057.03;;;10.35;100.00
4735;BME280;2381;50.676;12.612;2022-10-23T05:53:59;98042.03;;;10.35;100.00
4735;BME280;2381;50.676;12.612;2022-10-23T05:57:30;98048.16;;;10.36;100.00
4735;BME280;2381;50.676;12.612;2022-10-23T06:00:37;98049.44;;;10.40;100.00
4735;BME280;2381;50.676;12.612;2022-10-23T06:04:00;98054.06;;;10.46;100.00
4735;BME280;2381;50.676;12.612;2022-10-23T06:07:22;98070.69;;;10.46;100.00
4735;BME280;2381;50.676;12.612;2022-10-23T06:10:27;98078.78;;;10.45;100.00
4735;BME280;2381;50.676;12.612;2022-10-23T06:13:33;98081.56;;;10.43;100.00
4735;BME280;2381;50.676;12.612;2022-10-23T06:16:36;98082.84;;;10.47;100.00
4735;BME280;2381;50.676;12.612;2022-10-23T06:19:39;98098.19;;;10.52;100.00
4735;BME280;2381;50.676;12.612;2022-10-23T06:22:42;98091.63;;;10.56;100.00
4735;BME280;2381;50.676;12.612;2022-10-23T06:26:09;98084.03;;;10.61;100.00
4735;BME280;2381;50.676;12.612;2022-10-23T06:29:33;98081.41;;;10.61;100.00
4735;BME280;2381;50.676;12.612;2022-10-23T06:32:36;98093.09;;;10.66;100.00
4735;BME280;2381;50.676;12.612;2022-10-23T06:35:45;98087.66;;;10.68;100.00
4735;BME280;2381;50.676;12.612;2022-10-23T06:38:48;98087.97;;;10.73;100.00
4735;BME280;2381;50.676;12.612;2022-10-23T06:41:55;98093.94;;;10.75;100.00
4735;BME280;2381;50.676;12.612;2022-10-23T06:45:16;98093.75;;;10.76;100.00
4735;BME280;2381;50.676;12.612;2022-10-23T06:48:22;98097.88;;;10.79;100.00
4735;BME280;2381;50.676;12.612;2022-10-23T06:51:47;98105.78;;;10.87;100.00
4735;BME280;2381;50.676;12.612;2022-10-23T06:54:54;98103.16;;;10.95;100.00
4735;BME280;2381;50.676;12.612;2022-10-23T06:58:01;98094.41;;;11.02;100.00
4735;BME280;2381;50.676;12.612;2022-10-23T07:01:06;98097.84;;;11.11;100.00
4735;BME280;2381;50.676;12.612;2022-10-23T07:04:09;98097.81;;;11.19;100.00
4735;BME280;2381;50.676;12.612;2022-10-23T07:07:14;98094.19;;;11.28;100.00
4735;BME280;2381;50.676;12.612;2022-10-23T07:10:22;98086.25;;;11.36;100.00
4735;BME280;2381;50.676;12.612;2022-10-23T07:13:32;98081.75;;;11.52;100.00
4735;BME280;2381;50.676;12.612;2022-10-23T07:16:46;98086.50;;;11.65;100.00
4735;BME280;2381;50.676;12.612;2022-10-23T07:19:49;98094.75;;;11.70;100.00
4735;BME280;2381;50.676;12.612;2022-10-23T07:22:54;98093.72;;;11.79;100.00
4735;BME280;2381;50.676;12.612;2022-10-23T07:26:12;98089.06;;;11.89;100.00
4735;BME280;2381;50.676;12.612;2022-10-23T07:29:17;98087.97;;;12.06;100.00
4735;BME280;2381;50.676;12.612;2022-10-23T07:32:21;98078.69;;;12.18;100.00
4735;BME280;2381;50.676;12.612;2022-10-23T07:35:45;98066.78;;;12.22;100.00
4735;BME280;2381;50.676;12.612;2022-10-23T07:38:55;98066.00;;;12.36;100.00
4735;BME280;2381;50.676;12.612;2022-10-23T07:41:58;98060.13;;;12.48;100.00
4735;BME280;2381;50.676;12.612;2022-10-23T07:45:04;98040.47;;;12.51;100.00
4735;BME280;2381;50.676;12.612;2022-10-23T07:48:09;98031.56;;;12.52;100.00
4735;BME280;2381;50.676;12.612;2022-10-23T07:51:41;98014.34;;;12.56;100.00
4735;BME280;2381;50.676;12.612;2022-10-23T07:54:51;97994.84;;;12.57;100.00
4735;BME280;2381;50.676;12.612;2022-10-23T07:57:54;97959.94;;;12.61;100.00
4735;BME280;2381;50.676;12.612;2022-10-23T08:01:14;97925.25;;;12.64;100.00
4735;BME280;2381;50.676;12.612;2022-10-23T08:04:18;97903.75;;;12.67;100.00
4735;BME280;2381;50.676;12.612;2022-10-23T08:07:28;97884.06;;;12.70;100.00
4735;BME280;2381;50.676;12.612;2022-10-23T08:10:31;97873.59;;;12.76;100.00
4735;BME280;2381;50.676;12.612;2022-10-23T08:13:34;97870.41;;;12.81;100.00
4735;BME280;2381;50.676;12.612;2022-10-23T08:16:41;97856.38;;;12.94;100.00
4735;BME280;2381;50.676;12.612;2022-10-23T08:20:07;97853.00;;;13.00;100.00
4735;BME280;2381;50.676;12.612;2022-10-23T08:23:17;97846.47;;;13.17;100.00
4735;BME280;2381;50.676;12.612;2022-10-23T08:26:21;97836.41;;;13.27;100.00
4735;BME280;2381;50.676;12.612;2022-10-23T08:29:25;97815.13;;;13.35;100.00
4735;BME280;2381;50.676;12.612;2022-10-23T08:32:29;97816.59;;;13.38;100.00
4735;BME280;2381;50.676;12.612;2022-10-23T08:35:35;97796.50;;;13.43;100.00
4735;BME280;2381;50.676;12.612;2022-10-23T08:38:40;97777.47;;;13.54;100.00
4735;BME280;2381;50.676;12.612;2022-10-23T08:41:48;97746.94;;;13.58;100.00
4735;BME280;2381;50.676;12.612;2022-10-23T08:44:58;97749.28;;;13.68;100.00
4735;BME280;2381;50.676;12.612;2022-10-23T08:48:12;97749.34;;;13.74;100.00
4735;BME280;2381;50.676;12.612;2022-10-23T08:51:40;97731.25;;;13.78;100.00
4735;BME280;2381;50.676;12.612;2022-10-23T08:54:52;97722.41;;;13.98;100.00
4735;BME280;2381;50.676;12.612;2022-10-23T08:58:00;97674.94;;;14.24;100.00
4735;BME280;2381;50.676;12.612;2022-10-23T09:01:26;97641.38;;;14.44;100.00
4735;BME280;2381;50.676;12.612;2022-10-23T09:04:33;97581.03;;;14.40;100.00
4735;BME280;2381;50.676;12.612;2022-10-23T09:07:43;97563.50;;;14.39;100.00
4735;BME280;2381;50.676;12.612;2022-10-23T09:11:00;97546.56;;;14.46;100.00
4735;BME280;2381;50.676;12.612;2022-10-23T09:14:27;97513.34;;;14.50;100.00
4735;BME280;2381;50.676;12.612;2022-10-23T09:17:35;97500.72;;;14.59;100.00
4735;BME280;2381;50.676;12.612;2022-10-23T09:20:41;97520.69;;;14.61;100.00
4735;BME280;2381;50.676;12.612;2022-10-23T09:23:45;97528.06;;;14.72;100.00
4735;BME280;2381;50.676;12.612;2022-10-23T09:26:51;97505.63;;;14.94;100.00
4735;BME280;2381;50.676;12.612;2022-10-23T09:29:54;97490.88;;;15.11;100.00
4735;BME280;2381;50.676;12.612;2022-10-23T09:33:11;97481.50;;;15.22;100.00
4735;BME280;2381;50.676;12.612;2022-10-23T09:36:19;97478.63;;;15.36;100.00
4735;BME280;2381;50.676;12.612;2022-10-23T09:39:27;97444.28;;;15.54;100.00
4735;BME280;2381;50.676;12.612;2022-10-23T09:42:30;97429.94;;;15.62;100.00
4735;BME280;2381;50.676;12.612;2022-10-23T09:45:34;97417.66;;;15.67;100.00
4735;BME280;2381;50.676;12.612;2022-10-23T09:48:41;97415.84;;;15.92;100.00
4735;BME280;2381;50.676;12.612;2022-10-23T09:51:58;97412.19;;;15.93;100.00
4735;BME280;2381;50.676;12.612;2022-10-23T09:55:17;97387.50;;;16.17;100.00
4735;BME280;2381;50.676;12.612;2022-10-23T09:58:28;97393.69;;;16.35;100.00
4735;BME280;2381;50.676;12.612;2022-10-23T10:01:33;97400.34;;;16.51;100.00
4735;BME280;2381;50.676;12.612;2022-10-23T10:05:20;97402.78;;;16.52;100.00
4735;BME280;2381;50.676;12.612;2022-10-23T10:08:31;97398.25;;;16.53;100.00
4735;BME280;2381;50.676;12.612;2022-10-23T10:11:40;97385.22;;;16.51;100.00
4735;BME280;2381;50.676;12.612;2022-10-23T10:14:53;97386.44;;;16.49;100.00
4735;BME280;2381;50.676;12.612;2022-10-23T10:18:08;97379.97;;;16.63;100.00
4735;BME280;2381;50.676;12.612;2022-10-23T10:21:18;97375.25;;;16.83;100.00
4735;BME280;2381;50.676;12.612;2022-10-23T10:24:29;97380.75;;;16.88;100.00
4735;BME280;2381;50.676;12.612;2022-10-23T10:27:43;97367.88;;;17.03;100.00
4735;BME280;2381;50.676;12.612;2022-10-23T10:30:59;97361.75;;;17.20;100.00
4735;BME280;2381;50.676;12.612;2022-10-23T10:34:11;97370.38;;;17.34;100.00
4735;BME280;2381;50.676;12.612;2022-10-23T10:37:21;97386.22;;;17.47;100.00
4735;BME280;2381;50.676;12.612;2022-10-23T10:40:33;97389.53;;;17.60;100.00
4735;BME280;2381;50.676;12.612;2022-10-23T10:43:43;97393.09;;;17.84;100.00
4735;BME280;2381;50.676;12.612;2022-10-23T10:46:53;97404.34;;;17.86;95.34
4735;BME280;2381;50.676;12.612;2022-10-23T10:50:11;97411.75;;;17.84;94.65
4735;BME280;2381;50.676;12.612;2022-10-23T10:53:48;97420.13;;;17.87;89.12
4735;BME280;2381;50.676;12.612;2022-10-23T10:56:59;97417.75;;;17.79;91.83
4735;BME280;2381;50.676;12.612;2022-10-23T11:00:04;97417.13;;;17.66;94.89
4735;BME280;2381;50.676;12.612;2022-10-23T11:03:27;97420.25;;;17.63;97.77
4735;BME280;2381;50.676;12.612;2022-10-23T11:06:40;97409.13;;;17.66;97.96
4735;BME280;2381;50.676;12.612;2022-10-23T11:09:45;97407.66;;;17.70;99.60
4735;BME280;2381;50.676;12.612;2022-10-23T11:12:50;97404.66;;;17.78;99.64
4735;BME280;2381;50.676;12.612;2022-10-23T11:15:56;97392.75;;;17.80;100.00
4735;BME280;2381;50.676;12.612;2022-10-23T11:19:04;97392.22;;;17.90;97.99
4735;BME280;2381;50.676;12.612;2022-10-23T11:22:19;97386.69;;;18.03;92.38
4735;BME280;2381;50.676;12.612;2022-10-23T11:25:52;97378.91;;;18.01;99.45
4735;BME280;2381;50.676;12.612;2022-10-23T11:29:19;97377.28;;;18.00;89.64
4735;BME280;2381;50.676;12.612;2022-10-23T11:32:36;97371.59;;;17.97;94.35
4735;BME280;2381;50.676;12.612;2022-10-23T11:36:06;97361.28;;;18.00;90.98
4735;BME280;2381;50.676;12.612;2022-10-23T11:39:19;97349.38;;;18.03;93.53
4735;BME280;2381;50.676;12.612;2022-10-23T11:42:29;97337.66;;;18.04;98.11
4735;BME280;2381;50.676;12.612;2022-10-23T11:45:38;97327.13;;;18.09;93.25
4735;BME280;2381;50.676;12.612;2022-10-23T11:48:43;97332.22;;;18.10;95.75
4735;BME280;2381;50.676;12.612;2022-10-23T11:51:58;97312.78;;;18.10;99.96
4735;BME280;2381;50.676;12.612;2022-10-23T11:55:03;97310.09;;;18.10;96.83
4735;BME280;2381;50.676;12.612;2022-10-23T11:58:21;97292.72;;;18.07;100.00
4735;BME280;2381;50.676;12.612;2022-10-23T12:01:33;97301.97;;;18.05;98.07
4735;BME280;2381;50.676;12.612;2022-10-23T12:04:44;97299.88;;;18.07;97.82
4735;BME280;2381;50.676;12.612;2022-10-23T12:07:53;97292.81;;;18.01;100.00
4735;BME280;2381;50.676;12.612;2022-10-23T12:10:57;97287.50;;;18.01;100.00
4735;BME280;2381;50.676;12.612;2022-10-23T12:14:00;97281.56;;;17.99;100.00
4735;BME280;2381;50.676;12.612;2022-10-23T12:17:23;97271.13;;;17.97;100.00
4735;BME280;2381;50.676;12.612;2022-10-23T12:20:35;97248.19;;;17.96;100.00
4735;BME280;2381;50.676;12.612;2022-10-23T12:23:51;97255.16;;;17.97;100.00
4735;BME280;2381;50.676;12.612;2022-10-23T12:27:05;97242.88;;;17.96;100.00
4735;BME280;2381;50.676;12.612;2022-10-23T12:30:20;97248.19;;;17.96;100.00
4735;BME280;2381;50.676;12.612;2022-10-23T12:33:29;97251.09;;;17.95;100.00
4735;BME280;2381;50.676;12.612;2022-10-23T12:36:44;97234.06;;;17.96;100.00
4735;BME280;2381;50.676;12.612;2022-10-23T12:39:52;97224.44;;;17.95;100.00
4735;BME280;2381;50.676;12.612;2022-10-23T12:42:58;97229.28;;;17.98;100.00
4735;BME280;2381;50.676;12.612;2022-10-23T12:46:04;97217.84;;;17.97;100.00
4735;BME280;2381;50.676;12.612;2022-10-23T12:49:21;97209.28;;;17.95;100.00
4735;BME280;2381;50.676;12.612;2022-10-23T12:52:24;97199.19;;;17.97;100.00
4735;BME280;2381;50.676;12.612;2022-10-23T12:55:29;97211.25;;;18.00;100.00
4735;BME280;2381;50.676;12.612;2022-10-23T12:58:36;97218.75;;;18.03;100.00
4735;BME280;2381;50.676;12.612;2022-10-23T13:01:40;97195.69;;;18.20;100.00
4735;BME280;2381;50.676;12.612;2022-10-23T13:04:45;97186.41;;;18.22;100.00
4735;BME280;2381;50.676;12.612;2022-10-23T13:07:50;97192.66;;;18.27;100.00
4735;BME280;2381;50.676;12.612;2022-10-23T13:11:02;97209.38;;;18.35;100.00
4735;BME280;2381;50.676;12.612;2022-10-23T13:14:10;97191.41;;;18.42;100.00
4735;BME280;2381;50.676;12.612;2022-10-23T13:17:14;97176.41;;;18.52;100.00
4735;BME280;2381;50.676;12.612;2022-10-23T13:20:25;97181.59;;;18.58;100.00
4735;BME280;2381;50.676;12.612;2022-10-23T13:23:30;97184.97;;;18.65;100.00
4735;BME280;2381;50.676;12.612;2022-10-23T13:26:37;97181.25;;;18.66;100.00
4735;BME280;2381;50.676;12.612;2022-10-23T13:29:43;97197.25;;;18.66;100.00
4735;BME280;2381;50.676;12.612;2022-10-23T13:32:47;97194.81;;;18.65;100.00
4735;BME280;2381;50.676;12.612;2022-10-23T13:35:55;97198.31;;;18.65;99.28
4735;BME280;2381;50.676;12.612;2022-10-23T13:39:00;97196.47;;;18.66;100.00
4735;BME280;2381;50.676;12.612;2022-10-23T13:42:11;97205.25;;;18.66;95.78
4735;BME280;2381;50.676;12.612;2022-10-23T13:45:19;97204.22;;;18.67;90.53
4735;BME280;2381;50.676;12.612;2022-10-23T13:48:23;97202.09;;;18.69;87.76
4735;BME280;2381;50.676;12.612;2022-10-23T13:51:28;97196.78;;;18.69;91.74
4735;BME280;2381;50.676;12.612;2022-10-23T13:54:32;97204.56;;;18.71;90.61
4735;BME280;2381;50.676;12.612;2022-10-23T13:57:36;97211.28;;;18.73;85.46
4735;BME280;2381;50.676;12.612;2022-10-23T14:00:39;97214.44;;;18.70;89.29
4735;BME280;2381;50.676;12.612;2022-10-23T14:03:44;97219.16;;;18.68;88.38
4735;BME280;2381;50.676;12.612;2022-10-23T14:06:49;97220.69;;;18.64;86.47
4735;BME280;2381;50.676;12.612;2022-10-23T14:09:55;97220.13;;;18.62;91.46
4735;BME280;2381;50.676;12.612;2022-10-23T14:12:58;97199.72;;;18.56;88.84
4735;BME280;2381;50.676;12.612;2022-10-23T14:16:01;97193.34;;;18.57;92.79
4735;BME280;2381;50.676;12.612;2022-10-23T14:19:04;97184.41;;;18.52;89.40
4735;BME280;2381;50.676;12.612;2022-10-23T14:22:08;97176.31;;;18.47;91.08
4735;BME280;2381;50.676;12.612;2022-10-23T14:25:11;97196.03;;;18.46;85.86
4735;BME280;2381;50.676;12.612;2022-10-23T14:28:14;97195.69;;;18.42;86.04
4735;BME280;2381;50.676;12.612;2022-10-23T14:31:17;97194.22;;;18.35;87.27
4735;BME280;2381;50.676;12.612;2022-10-23T14:34:20;97200.25;;;18.31;86.61
4735;BME280;2381;50.676;12.612;2022-10-23T14:37:24;97179.59;;;18.26;85.56
4735;BME280;2381;50.676;12.612;2022-10-23T14:40:27;97161.63;;;18.22;85.75
4735;BME280;2381;50.676;12.612;2022-10-23T14:43:30;97169.03;;;18.20;87.96
4735;BME280;2381;50.676;12.612;2022-10-23T14:46:33;97168.69;;;18.16;87.35
4735;BME280;2381;50.676;12.612;2022-10-23T14:49:36;97163.00;;;18.13;89.18
4735;BME280;2381;50.676;12.612;2022-10-23T14:52:42;97152.84;;;18.10;87.79
4735;BME280;2381;50.676;12.612;2022-10-23T14:55:45;97137.28;;;18.07;88.97
4735;BME280;2381;50.676;12.612;2022-10-23T14:58:50;97145.88;;;17.97;90.63
4735;BME280;2381;50.676;12.612;2022-10-23T15:01:53;97142.06;;;17.70;100.00
4735;BME280;2381;50.676;12.612;2022-10-23T15:04:56;97154.56;;;17.81;98.31
4735;BME280;2381;50.676;12.612;2022-10-23T15:08:01;97137.09;;;17.74;100.00
4735;BME280;2381;50.676;12.612;2022-10-23T15:11:04;97130.34;;;17.71;100.00
4735;BME280;2381;50.676;12.612;2022-10-23T15:14:12;97136.84;;;17.64;96.96
4735;BME280;2381;50.676;12.612;2022-10-23T15:17:15;97140.31;;;17.53;100.00
4735;BME280;2381;50.676;12.612;2022-10-23T15:20:18;97130.56;;;17.47;100.00
4735;BME280;2381;50.676;12.612;2022-10-23T15:23:22;97130.00;;;17.45;100.00
4735;BME280;2381;50.676;12.612;2022-10-23T15:26:25;97138.94;;;17.39;100.00
4735;BME280;2381;50.676;12.612;2022-10-23T15:29:28;97121.97;;;17.22;100.00
4735;BME280;2381;50.676;12.612;2022-10-23T15:32:31;97131.59;;;17.34;96.99
4735;BME280;2381;50.676;12.612;2022-10-23T15:35:34;97135.03;;;17.35;94.37
4735;BME280;2381;50.676;12.612;2022-10-23T15:38:39;97127.06;;;17.23;100.00
4735;BME280;2381;50.676;12.612;2022-10-23T15:41:42;97122.44;;;17.19;100.00
4735;BME280;2381;50.676;12.612;2022-10-23T15:44:45;97129.47;;;17.13;100.00
4735;BME280;2381;50.676;12.612;2022-10-23T15:47:48;97125.06;;;17.07;100.00
4735;BME280;2381;50.676;12.612;2022-10-23T15:50:52;97110.81;;;17.02;100.00
4735;BME280;2381;50.676;12.612;2022-10-23T15:53:56;97115.66;;;17.05;100.00
4735;BME280;2381;50.676;12.612;2022-10-23T15:57:00;97119.72;;;17.07;95.75
4735;BME280;2381;50.676;12.612;2022-10-23T16:00:05;97109.34;;;17.17;95.50
4735;BME280;2381;50.676;12.612;2022-10-23T16:03:09;97106.22;;;17.32;100.00
4735;BME280;2381;50.676;12.612;2022-10-23T16:06:13;97108.41;;;17.35;94.66
4735;BME280;2381;50.676;12.612;2022-10-23T16:09:18;97100.91;;;17.32;96.43
4735;BME280;2381;50.676;12.612;2022-10-23T16:12:22;97096.50;;;17.26;95.08
4735;BME280;2381;50.676;12.612;2022-10-23T16:15:25;97094.88;;;17.25;90.30
4735;BME280;2381;50.676;12.612;2022-10-23T16:18:28;97090.00;;;17.22;89.89
4735;BME280;2381;50.676;12.612;2022-10-23T16:21:33;97088.16;;;17.34;93.71
4735;BME280;2381;50.676;12.612;2022-10-23T16:24:38;97082.41;;;17.37;93.38
4735;BME280;2381;50.676;12.612;2022-10-23T16:27:41;97081.00;;;17.23;91.94
4735;BME280;2381;50.676;12.612;2022-10-23T16:30:44;97078.91;;;17.25;91.20
4735;BME280;2381;50.676;12.612;2022-10-23T16:33:47;97078.75;;;17.08;91.23
4735;BME280;2381;50.676;12.612;2022-10-23T16:36:51;97085.97;;;17.08;88.61
4735;BME280;2381;50.676;12.612;2022-10-23T16:39:55;97089.63;;;16.95;89.12